createdAt,value
2022-11-10T00:00:18.080Z,1001.08
2022-11-10T00:01:18.060Z,1001.07
2022-11-10T00:02:18.054Z,1000.97
2022-11-10T00:03:18.139Z,1001.03
2022-11-10T00:04:18.921Z,1001.01
2022-11-10T00:05:18.019Z,1001.01
2022-11-10T00:06:18.010Z,1001.04
2022-11-10T00:07:18.015Z,1001.06
2022-11-10T00:08:17.991Z,1001.04
2022-11-10T00:09:17.993Z,1001.03
2022-11-10T00:10:17.972Z,1001.09
2022-11-10T00:11:17.949Z,1001.08
2022-11-10T00:12:17.951Z,1001.05
2022-11-10T00:13:17.931Z,1001.07
2022-11-10T00:14:17.920Z,1001.14
2022-11-10T00:15:17.950Z,1001.14
2022-11-10T00:16:17.902Z,1001.13
2022-11-10T00:17:17.892Z,1001.29
2022-11-10T00:18:17.873Z,1001.20
2022-11-10T00:19:17.861Z,1001.25
2022-11-10T00:20:17.852Z,1001.21
2022-11-10T00:21:17.851Z,1001.31
2022-11-10T00:22:17.833Z,1001.36
2022-11-10T00:23:17.827Z,1001.34
2022-11-10T00:24:17.801Z,1001.33
2022-11-10T00:25:17.790Z,1001.39
2022-11-10T00:26:24.855Z,1001.42
2022-11-10T00:27:17.775Z,1001.41
2022-11-10T00:28:17.765Z,1001.44
2022-11-10T00:29:17.745Z,1001.49
2022-11-10T00:30:17.744Z,1001.49
2022-11-10T00:31:17.724Z,1001.46
2022-11-10T00:32:17.745Z,1001.46
2022-11-10T00:33:17.706Z,1001.53
2022-11-10T00:34:17.696Z,1001.55
2022-11-10T00:35:17.684Z,1001.55
2022-11-10T00:36:17.675Z,1001.54
2022-11-10T00:37:17.654Z,1001.53
2022-11-10T00:38:17.674Z,1001.54
2022-11-10T00:39:17.634Z,1001.57
2022-11-10T00:40:17.633Z,1001.58
2022-11-10T00:41:17.614Z,1001.55
2022-11-10T00:42:17.604Z,1001.60
2022-11-10T00:43:21.238Z,1001.59
2022-11-10T00:44:18.613Z,1001.61
2022-11-10T00:45:17.564Z,1001.63
2022-11-10T00:46:17.564Z,1001.72
2022-11-10T00:47:17.544Z,1001.70
2022-11-10T00:48:17.536Z,1001.68
2022-11-10T00:49:17.555Z,1001.68
2022-11-10T00:50:17.535Z,1001.76
2022-11-10T00:51:17.504Z,1001.84
2022-11-10T00:52:17.505Z,1001.82
2022-11-10T00:53:17.479Z,1001.79
2022-11-10T00:54:17.474Z,1001.81
2022-11-10T00:55:17.455Z,1001.87
2022-11-10T00:56:17.473Z,1001.86
2022-11-10T00:57:17.436Z,1001.87
2022-11-10T00:58:17.425Z,1001.89
2022-11-10T00:59:17.405Z,1001.89
2022-11-10T01:00:17.403Z,1001.95
2022-11-10T01:01:17.422Z,1001.87
2022-11-10T01:02:17.395Z,1001.92
2022-11-10T01:03:17.365Z,1001.92
2022-11-10T01:04:17.357Z,1001.97
2022-11-10T01:05:17.346Z,1001.98
2022-11-10T01:06:17.339Z,1002.00
2022-11-10T01:07:17.384Z,1002.02
2022-11-10T01:08:17.314Z,1002.00
2022-11-10T01:09:17.304Z,1002.04
2022-11-10T01:10:17.296Z,1002.00
2022-11-10T01:11:17.275Z,1002.01
2022-11-10T01:12:17.273Z,1002.06
2022-11-10T01:13:17.293Z,1002.06
2022-11-10T01:14:17.245Z,1002.09
2022-11-10T01:15:17.237Z,1002.05
2022-11-10T01:16:17.228Z,1002.14
2022-11-10T01:17:17.215Z,1002.12
2022-11-10T01:18:17.203Z,1002.10
2022-11-10T01:19:17.204Z,1002.05
2022-11-10T01:20:17.182Z,1002.14
2022-11-10T01:21:17.165Z,1002.15
2022-11-10T01:22:17.159Z,1002.17
2022-11-10T01:23:17.144Z,1002.18
2022-11-10T01:24:17.156Z,1002.20
2022-11-10T01:25:17.118Z,1002.18
2022-11-10T01:26:17.115Z,1002.23
2022-11-10T01:27:17.095Z,1002.24
2022-11-10T01:28:17.096Z,1002.21
2022-11-10T01:29:17.075Z,1002.24
2022-11-10T01:30:17.084Z,1002.32
2022-11-10T01:31:17.058Z,1002.27
2022-11-10T01:32:17.054Z,1002.30
2022-11-10T01:33:17.034Z,1002.32
2022-11-10T01:34:17.024Z,1002.34
2022-11-10T01:35:17.014Z,1002.29
2022-11-10T01:36:17.035Z,1002.33
2022-11-10T01:37:16.994Z,1002.38
2022-11-10T01:38:16.989Z,1002.34
2022-11-10T01:39:16.966Z,1002.33
2022-11-10T01:40:16.991Z,1002.32
2022-11-10T01:41:16.943Z,1002.32
2022-11-10T01:42:16.954Z,1002.34
2022-11-10T01:43:16.926Z,1002.39
2022-11-10T01:44:16.914Z,1002.35
2022-11-10T01:45:16.904Z,1002.37
2022-11-10T01:46:16.899Z,1002.38
2022-11-10T01:47:16.875Z,1002.41
2022-11-10T01:48:16.894Z,1002.42
2022-11-10T01:49:16.855Z,1002.44
2022-11-10T01:50:16.856Z,1002.40
2022-11-10T01:51:16.833Z,1002.41
2022-11-10T01:52:16.823Z,1002.49
2022-11-10T01:53:16.814Z,1002.46
2022-11-10T01:54:16.882Z,1002.50
2022-11-10T01:55:16.791Z,1002.46
2022-11-10T01:56:16.783Z,1002.47
2022-11-10T01:57:16.765Z,1002.49
2022-11-10T01:58:16.755Z,1002.46
2022-11-10T01:59:16.745Z,1002.45
2022-11-10T02:00:16.752Z,1002.42
2022-11-10T02:01:16.783Z,1002.47
2022-11-10T02:02:16.714Z,1002.43
2022-11-10T02:03:16.754Z,1002.38
2022-11-10T02:04:16.694Z,1002.46
2022-11-10T02:05:16.715Z,1002.44
2022-11-10T02:06:16.665Z,1002.49
2022-11-10T02:07:16.722Z,1002.46
2022-11-10T02:08:16.651Z,1002.41
2022-11-10T02:09:16.635Z,1002.48
2022-11-10T02:10:16.624Z,1002.51
2022-11-10T02:11:16.634Z,1002.54
2022-11-10T02:12:16.601Z,1002.57
2022-11-10T02:13:16.594Z,1002.58
2022-11-10T02:14:16.583Z,1002.56
2022-11-10T02:15:16.581Z,1002.59
2022-11-10T02:16:16.565Z,1002.56
2022-11-10T02:17:16.566Z,1002.55
2022-11-10T02:18:16.536Z,1002.54
2022-11-10T02:19:16.523Z,1002.51
2022-11-10T02:20:16.512Z,1002.48
2022-11-10T02:21:16.503Z,1002.48
2022-11-10T02:22:16.521Z,1002.55
2022-11-10T02:23:16.484Z,1002.59
2022-11-10T02:24:16.463Z,1002.52
2022-11-10T02:25:16.461Z,1002.54
2022-11-10T02:26:16.443Z,1002.49
2022-11-10T02:27:16.440Z,1002.47
2022-11-10T02:28:16.456Z,1002.50
2022-11-10T02:29:16.414Z,1002.55
2022-11-10T02:30:16.402Z,1002.58
2022-11-10T02:31:16.395Z,1002.59
2022-11-10T02:32:16.374Z,1002.57
2022-11-10T02:33:16.375Z,1002.57
2022-11-10T02:34:16.373Z,1002.60
2022-11-10T02:35:16.539Z,1002.57
2022-11-10T02:36:16.341Z,1002.63
2022-11-10T02:37:16.322Z,1002.67
2022-11-10T02:38:16.314Z,1002.64
2022-11-10T02:39:16.324Z,1002.59
2022-11-10T02:40:16.285Z,1002.61
2022-11-10T02:41:16.283Z,1002.59
2022-11-10T02:42:16.271Z,1002.59
2022-11-10T02:43:16.266Z,1002.56
2022-11-10T02:44:16.242Z,1002.57
2022-11-10T02:45:16.252Z,1002.60
2022-11-10T02:46:16.222Z,1002.56
2022-11-10T02:47:16.228Z,1002.59
2022-11-10T02:48:16.203Z,1002.53
2022-11-10T02:49:16.192Z,1002.58
2022-11-10T02:50:16.201Z,1002.61
2022-11-10T02:51:16.172Z,1002.58
2022-11-10T02:52:16.156Z,1002.59
2022-11-10T02:53:16.153Z,1002.60
2022-11-10T02:54:16.132Z,1002.63
2022-11-10T02:55:16.122Z,1002.61
2022-11-10T02:56:16.145Z,1002.66
2022-11-10T02:57:16.104Z,1002.67
2022-11-10T02:58:16.089Z,1002.70
2022-11-10T02:59:16.083Z,1002.74
2022-11-10T03:00:16.070Z,1002.75
2022-11-10T03:01:16.120Z,1002.70
2022-11-10T03:02:16.075Z,1002.76
2022-11-10T03:03:16.040Z,1002.82
2022-11-10T03:04:16.032Z,1002.82
2022-11-10T03:05:16.013Z,1002.87
2022-11-10T03:06:16.005Z,1002.89
2022-11-10T03:07:16.025Z,1002.87
2022-11-10T03:08:15.994Z,1002.85
2022-11-10T03:09:15.971Z,1002.83
2022-11-10T03:10:15.961Z,1002.85
2022-11-10T03:11:15.951Z,1002.88
2022-11-10T03:12:15.934Z,1002.89
2022-11-10T03:13:15.921Z,1002.91
2022-11-10T03:14:15.924Z,1002.87
2022-11-10T03:15:15.901Z,1002.87
2022-11-10T03:16:15.891Z,1002.93
2022-11-10T03:17:15.881Z,1002.98
2022-11-10T03:18:15.872Z,1002.92
2022-11-10T03:19:15.880Z,1002.98
2022-11-10T03:20:15.853Z,1003.00
2022-11-10T03:21:15.842Z,1003.05
2022-11-10T03:22:15.821Z,1003.04
2022-11-10T03:23:15.815Z,1003.04
2022-11-10T03:24:15.800Z,1003.03
2022-11-10T03:25:15.817Z,1003.11
2022-11-10T03:26:15.781Z,1003.10
2022-11-10T03:27:15.770Z,1003.17
2022-11-10T03:28:15.759Z,1003.26
2022-11-10T03:29:15.752Z,1003.27
2022-11-10T03:30:15.731Z,1003.26
2022-11-10T03:31:15.749Z,1003.28
2022-11-10T03:32:15.710Z,1003.26
2022-11-10T03:33:15.702Z,1003.26
2022-11-10T03:34:15.693Z,1003.22
2022-11-10T03:35:15.685Z,1003.23
2022-11-10T03:36:15.702Z,1003.19
2022-11-10T03:37:15.668Z,1003.23
2022-11-10T03:38:15.645Z,1003.30
2022-11-10T03:39:15.644Z,1003.30
2022-11-10T03:40:15.632Z,1003.28
2022-11-10T03:41:20.184Z,1003.31
2022-11-10T03:42:16.623Z,1003.35
2022-11-10T03:43:15.592Z,1003.37
2022-11-10T03:44:15.581Z,1003.30
2022-11-10T03:45:15.580Z,1003.41
2022-11-10T03:46:15.556Z,1003.37
2022-11-10T03:47:15.570Z,1003.39
2022-11-10T03:48:15.531Z,1003.37
2022-11-10T03:49:15.523Z,1003.35
2022-11-10T03:50:15.518Z,1003.40
2022-11-10T03:51:15.500Z,1003.35
2022-11-10T03:52:15.493Z,1003.38
2022-11-10T03:53:15.501Z,1003.33
2022-11-10T03:54:15.469Z,1003.40
2022-11-10T03:55:15.460Z,1003.39
2022-11-10T03:56:15.444Z,1003.40
2022-11-10T03:57:15.438Z,1003.38
2022-11-10T03:58:15.426Z,1003.39
2022-11-10T03:59:15.441Z,1003.42
2022-11-10T04:00:15.400Z,1003.47
2022-11-10T04:01:15.445Z,1003.50
2022-11-10T04:02:15.380Z,1003.56
2022-11-10T04:03:15.370Z,1003.58
2022-11-10T04:04:15.381Z,1003.57
2022-11-10T04:05:15.350Z,1003.58
2022-11-10T04:06:15.331Z,1003.54
2022-11-10T04:07:15.372Z,1003.57
2022-11-10T04:08:15.310Z,1003.65
2022-11-10T04:09:15.305Z,1003.65
2022-11-10T04:10:15.340Z,1003.70
2022-11-10T04:11:15.280Z,1003.67
2022-11-10T04:12:16.151Z,1003.62
2022-11-10T04:13:15.259Z,1003.63
2022-11-10T04:14:15.241Z,1003.64
2022-11-10T04:15:15.240Z,1003.71
2022-11-10T04:16:15.246Z,1003.74
2022-11-10T04:17:15.213Z,1003.78
2022-11-10T04:18:15.199Z,1003.80
2022-11-10T04:19:15.189Z,1003.81
2022-11-10T04:20:15.182Z,1003.74
2022-11-10T04:21:15.171Z,1003.74
2022-11-10T04:22:15.180Z,1003.78
2022-11-10T04:23:15.149Z,1003.75
2022-11-10T04:24:15.156Z,1003.83
2022-11-10T04:25:15.130Z,1003.88
2022-11-10T04:26:15.109Z,1003.80
2022-11-10T04:27:15.100Z,1003.83
2022-11-10T04:28:15.110Z,1003.83
2022-11-10T04:29:15.089Z,1003.76
2022-11-10T04:30:15.070Z,1003.82
2022-11-10T04:31:15.068Z,1003.78
2022-11-10T04:32:15.048Z,1003.78
2022-11-10T04:33:15.038Z,1003.79
2022-11-10T04:34:15.041Z,1003.77
2022-11-10T04:35:15.024Z,1003.80
2022-11-10T04:36:14.999Z,1003.84
2022-11-10T04:37:14.988Z,1003.87
2022-11-10T04:38:14.978Z,1003.89
2022-11-10T04:39:14.970Z,1003.85
2022-11-10T04:40:14.981Z,1003.91
2022-11-10T04:41:14.948Z,1003.86
2022-11-10T04:42:14.933Z,1003.82
2022-11-10T04:43:14.927Z,1003.82
2022-11-10T04:44:14.913Z,1003.90
2022-11-10T04:45:14.904Z,1003.85
2022-11-10T04:46:14.900Z,1003.86
2022-11-10T04:47:14.879Z,1003.83
2022-11-10T04:48:14.867Z,1003.87
2022-11-10T04:49:14.858Z,1003.90
2022-11-10T04:50:14.848Z,1003.94
2022-11-10T04:51:14.918Z,1003.99
2022-11-10T04:52:14.825Z,1004.01
2022-11-10T04:53:14.817Z,1004.12
2022-11-10T04:54:14.800Z,1004.04
2022-11-10T04:55:14.789Z,1004.07
2022-11-10T04:56:14.776Z,1004.14
2022-11-10T04:57:14.789Z,1004.14
2022-11-10T04:58:14.761Z,1004.11
2022-11-10T04:59:14.749Z,1004.16
2022-11-10T05:00:14.730Z,1004.12
2022-11-10T05:01:14.812Z,1004.22
2022-11-10T05:02:14.721Z,1004.19
2022-11-10T05:03:14.729Z,1004.21
2022-11-10T05:04:14.693Z,1004.21
2022-11-10T05:05:14.682Z,1004.24
2022-11-10T05:06:14.669Z,1004.26
2022-11-10T05:07:14.720Z,1004.28
2022-11-10T05:08:14.680Z,1004.23
2022-11-10T05:09:14.639Z,1004.29
2022-11-10T05:10:14.620Z,1004.29
2022-11-10T05:11:14.619Z,1004.28
2022-11-10T05:12:18.507Z,1004.34
2022-11-10T05:13:15.617Z,1004.38
2022-11-10T05:14:14.579Z,1004.44
2022-11-10T05:15:14.575Z,1004.35
2022-11-10T05:16:14.558Z,1004.37
2022-11-10T05:17:14.549Z,1004.39
2022-11-10T05:18:14.540Z,1004.37
2022-11-10T05:19:14.539Z,1004.40
2022-11-10T05:20:14.510Z,1004.38
2022-11-10T05:21:14.507Z,1004.50
2022-11-10T05:22:14.490Z,1004.46
2022-11-10T05:23:14.478Z,1004.55
2022-11-10T05:24:14.490Z,1004.50
2022-11-10T05:25:14.459Z,1004.59
2022-11-10T05:26:14.450Z,1004.61
2022-11-10T05:27:14.440Z,1004.62
2022-11-10T05:28:14.421Z,1004.64
2022-11-10T05:29:14.423Z,1004.69
2022-11-10T05:30:14.490Z,1004.65
2022-11-10T05:31:14.389Z,1004.70
2022-11-10T05:32:14.379Z,1004.74
2022-11-10T05:33:14.371Z,1004.73
2022-11-10T05:34:14.356Z,1004.78
2022-11-10T05:35:14.347Z,1004.78
2022-11-10T05:36:14.348Z,1004.82
2022-11-10T05:37:14.332Z,1004.80
2022-11-10T05:38:14.308Z,1004.80
2022-11-10T05:39:14.298Z,1004.88
2022-11-10T05:40:14.287Z,1004.91
2022-11-10T05:41:14.302Z,1004.85
2022-11-10T05:42:14.267Z,1004.92
2022-11-10T05:43:14.258Z,1004.86
2022-11-10T05:44:14.239Z,1004.87
2022-11-10T05:45:14.236Z,1004.87
2022-11-10T05:46:14.217Z,1004.89
2022-11-10T05:47:14.249Z,1004.85
2022-11-10T05:48:14.197Z,1004.88
2022-11-10T05:49:14.188Z,1004.96
2022-11-10T05:50:14.175Z,1004.95
2022-11-10T05:51:14.167Z,1005.02
2022-11-10T05:52:14.147Z,1005.09
2022-11-10T05:53:14.168Z,1005.07
2022-11-10T05:54:14.128Z,1005.12
2022-11-10T05:55:14.117Z,1005.18
2022-11-10T05:56:14.114Z,1005.20
2022-11-10T05:57:14.098Z,1005.20
2022-11-10T05:58:14.088Z,1005.24
2022-11-10T05:59:14.099Z,1005.22
2022-11-10T06:00:14.067Z,1005.24
2022-11-10T06:01:14.069Z,1005.28
2022-11-10T06:02:14.048Z,1005.28
2022-11-10T06:03:14.075Z,1005.22
2022-11-10T06:04:14.018Z,1005.26
2022-11-10T06:05:14.037Z,1005.32
2022-11-10T06:06:13.995Z,1005.33
2022-11-10T06:07:14.032Z,1005.32
2022-11-10T06:08:13.975Z,1005.44
2022-11-10T06:09:13.967Z,1005.51
2022-11-10T06:10:13.947Z,1005.52
2022-11-10T06:11:13.983Z,1005.49
2022-11-10T06:12:13.934Z,1005.52
2022-11-10T06:13:13.918Z,1005.54
2022-11-10T06:14:13.907Z,1005.53
2022-11-10T06:15:13.895Z,1005.48
2022-11-10T06:16:13.886Z,1005.59
2022-11-10T06:17:13.887Z,1005.57
2022-11-10T06:18:13.866Z,1005.56
2022-11-10T06:19:13.885Z,1005.56
2022-11-10T06:20:13.851Z,1005.67
2022-11-10T06:21:13.825Z,1005.68
2022-11-10T06:22:13.836Z,1005.65
2022-11-10T06:23:13.856Z,1005.72
2022-11-10T06:24:13.796Z,1005.69
2022-11-10T06:25:13.776Z,1005.73
2022-11-10T06:26:13.767Z,1005.71
2022-11-10T06:27:22.556Z,1005.81
2022-11-10T06:28:13.755Z,1005.84
2022-11-10T06:29:15.189Z,1005.77
2022-11-10T06:30:13.731Z,1005.76
2022-11-10T06:31:13.715Z,1005.85
2022-11-10T06:32:13.712Z,1005.86
2022-11-10T06:33:13.716Z,1005.83
2022-11-10T06:34:13.686Z,1005.94
2022-11-10T06:35:13.667Z,1005.89
2022-11-10T06:36:13.655Z,1005.97
2022-11-10T06:37:13.646Z,1005.95
2022-11-10T06:38:13.639Z,1006.01
2022-11-10T06:39:13.636Z,1005.98
2022-11-10T06:40:13.613Z,1005.97
2022-11-10T06:41:13.603Z,1005.96
2022-11-10T06:42:13.596Z,1005.96
2022-11-10T06:43:13.576Z,1005.98
2022-11-10T06:44:13.655Z,1006.01
2022-11-10T06:45:13.556Z,1005.99
2022-11-10T06:46:13.543Z,1006.03
2022-11-10T06:47:13.545Z,1006.04
2022-11-10T06:48:13.530Z,1006.06
2022-11-10T06:49:13.506Z,1006.12
2022-11-10T06:50:13.520Z,1006.04
2022-11-10T06:51:13.498Z,1006.07
2022-11-10T06:52:13.484Z,1006.05
2022-11-10T06:53:13.466Z,1006.10
2022-11-10T06:54:13.456Z,1006.16
2022-11-10T06:55:13.732Z,1006.21
2022-11-10T06:56:13.444Z,1006.26
2022-11-10T06:57:13.426Z,1006.27
2022-11-10T06:58:13.755Z,1006.26
2022-11-10T06:59:13.397Z,1006.35
2022-11-10T07:00:13.394Z,1006.41
2022-11-10T07:01:16.565Z,1006.34
2022-11-10T07:02:14.495Z,1006.47
2022-11-10T07:03:13.356Z,1006.53
2022-11-10T07:04:19.775Z,1006.52
2022-11-10T07:05:14.344Z,1006.54
2022-11-10T07:06:13.344Z,1006.62
2022-11-10T07:07:13.740Z,1006.69
2022-11-10T07:08:13.933Z,1006.77
2022-11-10T07:09:13.416Z,1006.76
2022-11-10T07:10:13.945Z,1006.82
2022-11-10T07:11:13.270Z,1006.81
2022-11-10T07:12:13.283Z,1006.85
2022-11-10T07:13:13.242Z,1006.82
2022-11-10T07:14:13.996Z,1006.92
2022-11-10T07:15:13.214Z,1006.96
2022-11-10T07:16:13.204Z,1006.94
2022-11-10T07:17:13.892Z,1006.98
2022-11-10T07:18:13.384Z,1006.92
2022-11-10T07:19:13.287Z,1006.94
2022-11-10T07:20:13.926Z,1006.95
2022-11-10T07:21:14.533Z,1007.01
2022-11-10T07:22:13.148Z,1006.99
2022-11-10T07:23:13.143Z,1006.98
2022-11-10T07:24:13.225Z,1006.97
2022-11-10T07:25:13.106Z,1007.06
2022-11-10T07:26:13.235Z,1007.05
2022-11-10T07:27:13.085Z,1007.03
2022-11-10T07:28:13.266Z,1007.01
2022-11-10T07:29:13.364Z,1007.09
2022-11-10T07:30:13.365Z,1007.08
2022-11-10T07:31:13.475Z,1007.09
2022-11-10T07:32:13.484Z,1007.11
2022-11-10T07:33:13.013Z,1007.02
2022-11-10T07:34:13.494Z,1007.06
2022-11-10T07:35:13.019Z,1007.06
2022-11-10T07:36:13.013Z,1007.05
2022-11-10T07:37:12.980Z,1007.08
2022-11-10T07:38:12.979Z,1007.07
2022-11-10T07:39:13.134Z,1007.10
2022-11-10T07:40:12.953Z,1007.11
2022-11-10T07:41:13.142Z,1007.17
2022-11-10T07:42:12.915Z,1007.14
2022-11-10T07:43:13.264Z,1007.20
2022-11-10T07:44:12.895Z,1007.22
2022-11-10T07:45:12.903Z,1007.24
2022-11-10T07:46:13.274Z,1007.20
2022-11-10T07:47:13.395Z,1007.17
2022-11-10T07:48:12.853Z,1007.19
2022-11-10T07:49:12.835Z,1007.20
2022-11-10T07:50:12.825Z,1007.26
2022-11-10T07:51:12.834Z,1007.23
2022-11-10T07:52:13.525Z,1007.25
2022-11-10T07:53:12.796Z,1007.27
2022-11-10T07:54:12.783Z,1007.36
2022-11-10T07:55:12.764Z,1007.39
2022-11-10T07:56:13.534Z,1007.39
2022-11-10T07:57:12.773Z,1007.48
2022-11-10T07:58:12.744Z,1007.39
2022-11-10T07:59:12.723Z,1007.47
2022-11-10T08:00:12.722Z,1007.41
2022-11-10T08:01:12.747Z,1007.41
2022-11-10T08:02:13.472Z,1007.42
2022-11-10T08:03:13.443Z,1007.44
2022-11-10T08:04:13.434Z,1007.41
2022-11-10T08:05:13.413Z,1007.36
2022-11-10T08:06:13.491Z,1007.44
2022-11-10T08:07:12.731Z,1007.42
2022-11-10T08:08:12.653Z,1007.40
2022-11-10T08:09:12.626Z,1007.40
2022-11-10T08:10:12.606Z,1007.41
2022-11-10T08:11:12.594Z,1007.46
2022-11-10T08:12:12.577Z,1007.44
2022-11-10T08:13:12.584Z,1007.45
2022-11-10T08:14:12.575Z,1007.52
2022-11-10T08:15:12.545Z,1007.55
2022-11-10T08:16:12.533Z,1007.57
2022-11-10T08:17:12.885Z,1007.51
2022-11-10T08:18:12.513Z,1007.55
2022-11-10T08:19:12.894Z,1007.51
2022-11-10T08:20:13.005Z,1007.54
2022-11-10T08:21:13.016Z,1007.53
2022-11-10T08:22:13.041Z,1007.56
2022-11-10T08:23:13.024Z,1007.56
2022-11-10T08:24:12.444Z,1007.58
2022-11-10T08:25:12.444Z,1007.59
2022-11-10T08:26:12.543Z,1007.57
2022-11-10T08:27:12.407Z,1007.50
2022-11-10T08:28:12.404Z,1007.49
2022-11-10T08:29:12.383Z,1007.54
2022-11-10T08:30:12.444Z,1007.53
2022-11-10T08:31:12.362Z,1007.50
2022-11-10T08:32:12.357Z,1007.51
2022-11-10T08:33:12.345Z,1007.53
2022-11-10T08:34:12.334Z,1007.63
2022-11-10T08:35:12.316Z,1007.58
2022-11-10T08:36:12.915Z,1007.60
2022-11-10T08:37:12.304Z,1007.52
2022-11-10T08:38:12.287Z,1007.53
2022-11-10T08:39:13.317Z,1007.55
2022-11-10T08:40:13.664Z,1007.51
2022-11-10T08:41:12.258Z,1007.56
2022-11-10T08:42:12.774Z,1007.57
2022-11-10T08:43:12.227Z,1007.48
2022-11-10T08:44:13.549Z,1007.55
2022-11-10T08:45:12.204Z,1007.51
2022-11-10T08:46:12.198Z,1007.54
2022-11-10T08:47:12.776Z,1007.58
2022-11-10T08:48:12.201Z,1007.61
2022-11-10T08:49:12.171Z,1007.60
2022-11-10T08:50:12.917Z,1007.69
2022-11-10T08:51:12.905Z,1007.68
2022-11-10T08:52:12.896Z,1007.74
2022-11-10T08:53:12.885Z,1007.71
2022-11-10T08:54:12.106Z,1007.78
2022-11-10T08:55:12.125Z,1007.77
2022-11-10T08:56:12.089Z,1007.77
2022-11-10T08:57:12.075Z,1007.85
2022-11-10T08:58:12.054Z,1007.79
2022-11-10T08:59:12.260Z,1007.83
2022-11-10T09:00:12.035Z,1007.83
2022-11-10T09:01:12.295Z,1007.89
2022-11-10T09:02:12.028Z,1007.83
2022-11-10T09:03:12.391Z,1007.91
2022-11-10T09:04:12.080Z,1007.86
2022-11-10T09:05:12.405Z,1007.88
2022-11-10T09:06:12.514Z,1007.91
2022-11-10T09:07:12.565Z,1007.84
2022-11-10T09:08:11.947Z,1007.79
2022-11-10T09:09:11.935Z,1007.87
2022-11-10T09:10:12.682Z,1007.85
2022-11-10T09:11:11.924Z,1007.90
2022-11-10T09:12:11.898Z,1007.97
2022-11-10T09:13:11.886Z,1008.03
2022-11-10T09:14:11.877Z,1008.08
2022-11-10T09:15:12.166Z,1008.08
2022-11-10T09:16:12.177Z,1008.00
2022-11-10T09:17:11.846Z,1008.02
2022-11-10T09:18:11.840Z,1008.04
2022-11-10T09:19:21.636Z,1008.16
2022-11-10T09:20:12.906Z,1008.14
2022-11-10T09:21:12.312Z,1008.13
2022-11-10T09:22:12.317Z,1008.12
2022-11-10T09:23:11.776Z,1008.18
2022-11-10T09:24:11.768Z,1008.28
2022-11-10T09:25:11.768Z,1008.23
2022-11-10T09:26:12.279Z,1008.28
2022-11-10T09:27:11.730Z,1008.32
2022-11-10T09:28:11.738Z,1008.30
2022-11-10T09:29:11.707Z,1008.39
2022-11-10T09:30:16.354Z,1008.40
2022-11-10T09:31:13.269Z,1008.39
2022-11-10T09:32:11.678Z,1008.44
2022-11-10T09:33:12.202Z,1008.38
2022-11-10T09:34:11.649Z,1008.43
2022-11-10T09:35:11.639Z,1008.43
2022-11-10T09:36:11.639Z,1008.44
2022-11-10T09:37:12.390Z,1008.46
2022-11-10T09:38:12.817Z,1008.58
2022-11-10T09:39:12.358Z,1008.59
2022-11-10T09:40:13.018Z,1008.63
2022-11-10T09:41:11.628Z,1008.71
2022-11-10T09:42:11.568Z,1008.69
2022-11-10T09:43:11.557Z,1008.72
2022-11-10T09:44:11.551Z,1008.73
2022-11-10T09:45:11.760Z,1008.72
2022-11-10T09:46:11.518Z,1008.73
2022-11-10T09:47:12.468Z,1008.69
2022-11-10T09:48:11.502Z,1008.70
2022-11-10T09:49:11.483Z,1008.72
2022-11-10T09:50:11.497Z,1008.76
2022-11-10T09:51:11.599Z,1008.75
2022-11-10T09:52:11.999Z,1008.82
2022-11-10T09:53:12.032Z,1008.72
2022-11-10T09:54:12.071Z,1008.79
2022-11-10T09:55:11.420Z,1008.79
2022-11-10T09:56:11.439Z,1008.80
2022-11-10T09:57:11.389Z,1008.79
2022-11-10T09:58:11.387Z,1008.78
2022-11-10T09:59:11.378Z,1008.74
2022-11-10T10:00:11.552Z,1008.80
2022-11-10T10:01:11.391Z,1008.80
2022-11-10T10:02:11.369Z,1008.82
2022-11-10T10:03:11.332Z,1008.78
2022-11-10T10:04:11.329Z,1008.76
2022-11-10T10:05:11.299Z,1008.79
2022-11-10T10:06:11.310Z,1008.80
2022-11-10T10:07:11.957Z,1008.79
2022-11-10T10:08:11.298Z,1008.86
2022-11-10T10:09:11.695Z,1008.74
2022-11-10T10:10:16.991Z,1008.82
2022-11-10T10:11:12.231Z,1008.80
2022-11-10T10:12:11.745Z,1008.82
2022-11-10T10:13:11.222Z,1008.82
2022-11-10T10:14:11.220Z,1008.85
2022-11-10T10:15:11.964Z,1008.83
2022-11-10T10:16:11.180Z,1008.94
2022-11-10T10:17:11.189Z,1008.96
2022-11-10T10:18:11.162Z,1008.93
2022-11-10T10:19:12.170Z,1008.92
2022-11-10T10:20:11.149Z,1008.91
2022-11-10T10:21:11.891Z,1008.95
2022-11-10T10:22:11.878Z,1009.00
2022-11-10T10:23:11.101Z,1009.01
2022-11-10T10:24:15.245Z,1009.00
2022-11-10T10:25:12.092Z,1008.96
2022-11-10T10:26:11.071Z,1008.99
2022-11-10T10:27:11.061Z,1009.00
2022-11-10T10:28:11.050Z,1009.07
2022-11-10T10:29:11.281Z,1008.99
2022-11-10T10:30:11.311Z,1009.00
2022-11-10T10:31:11.011Z,1009.00
2022-11-10T10:32:11.000Z,1008.96
2022-11-10T10:33:10.990Z,1009.03
2022-11-10T10:34:11.459Z,1008.89
2022-11-10T10:35:10.971Z,1008.94
2022-11-10T10:36:10.981Z,1008.93
2022-11-10T10:37:11.563Z,1008.96
2022-11-10T10:38:11.591Z,1009.01
2022-11-10T10:39:11.632Z,1008.96
2022-11-10T10:40:10.934Z,1008.99
2022-11-10T10:41:10.902Z,1008.99
2022-11-10T10:42:10.902Z,1008.99
2022-11-10T10:43:10.881Z,1008.95
2022-11-10T10:44:10.872Z,1008.94
2022-11-10T10:45:10.941Z,1008.86
2022-11-10T10:46:10.842Z,1008.89
2022-11-10T10:47:10.863Z,1008.86
2022-11-10T10:48:10.822Z,1008.88
2022-11-10T10:49:29.191Z,1008.94
2022-11-10T10:50:11.801Z,1008.94
2022-11-10T10:51:10.791Z,1008.94
2022-11-10T10:52:11.273Z,1008.89
2022-11-10T10:53:10.797Z,1008.90
2022-11-10T10:54:10.751Z,1008.87
2022-11-10T10:55:10.743Z,1008.93
2022-11-10T10:56:10.734Z,1008.85
2022-11-10T10:57:10.723Z,1008.89
2022-11-10T10:58:10.712Z,1008.93
2022-11-10T10:59:10.722Z,1009.00
2022-11-10T11:00:10.684Z,1008.97
2022-11-10T11:01:10.734Z,1009.00
2022-11-10T11:02:10.675Z,1008.91
2022-11-10T11:03:11.443Z,1008.91
2022-11-10T11:04:11.408Z,1008.94
2022-11-10T11:05:11.072Z,1008.94
2022-11-10T11:06:10.623Z,1008.92
2022-11-10T11:07:10.679Z,1008.94
2022-11-10T11:08:10.602Z,1008.91
2022-11-10T11:09:10.591Z,1008.96
2022-11-10T11:10:10.573Z,1008.96
2022-11-10T11:11:10.602Z,1008.94
2022-11-10T11:12:10.558Z,1008.94
2022-11-10T11:13:10.543Z,1009.04
2022-11-10T11:14:10.533Z,1009.08
2022-11-10T11:15:10.524Z,1009.06
2022-11-10T11:16:10.504Z,1009.06
2022-11-10T11:17:10.615Z,1009.03
2022-11-10T11:18:10.494Z,1009.03
2022-11-10T11:19:10.473Z,1009.06
2022-11-10T11:20:10.465Z,1009.08
2022-11-10T11:21:10.451Z,1009.10
2022-11-10T11:22:10.435Z,1009.13
2022-11-10T11:23:10.455Z,1009.04
2022-11-10T11:24:10.423Z,1009.03
2022-11-10T11:25:10.428Z,1009.05
2022-11-10T11:26:10.397Z,1009.03
2022-11-10T11:27:10.403Z,1009.06
2022-11-10T11:28:10.376Z,1009.05
2022-11-10T11:29:10.405Z,1009.12
2022-11-10T11:30:10.353Z,1009.07
2022-11-10T11:31:10.343Z,1009.04
2022-11-10T11:32:10.341Z,1009.04
2022-11-10T11:33:10.325Z,1009.06
2022-11-10T11:34:10.335Z,1009.08
2022-11-10T11:35:10.304Z,1009.08
2022-11-10T11:36:10.283Z,1009.13
2022-11-10T11:37:14.082Z,1009.11
2022-11-10T11:38:11.254Z,1009.04
2022-11-10T11:39:10.255Z,1009.02
2022-11-10T11:40:10.258Z,1009.08
2022-11-10T11:41:10.234Z,1009.01
2022-11-10T11:42:10.217Z,1009.12
2022-11-10T11:43:10.203Z,1009.08
2022-11-10T11:44:10.195Z,1009.09
2022-11-10T11:45:10.184Z,1009.06
2022-11-10T11:46:11.667Z,1009.08
2022-11-10T11:47:10.162Z,1009.05
2022-11-10T11:48:10.155Z,1009.03
2022-11-10T11:49:10.144Z,1008.98
2022-11-10T11:50:10.124Z,1009.00
2022-11-10T11:51:10.144Z,1008.95
2022-11-10T11:52:10.120Z,1008.92
2022-11-10T11:53:10.096Z,1008.92
2022-11-10T11:54:10.088Z,1009.03
2022-11-10T11:55:10.075Z,1009.02
2022-11-10T11:56:10.085Z,1008.97
2022-11-10T11:57:10.075Z,1008.98
2022-11-10T11:58:10.037Z,1009.03
2022-11-10T11:59:10.035Z,1009.01
2022-11-10T12:00:10.044Z,1008.99
2022-11-10T12:01:10.006Z,1009.09
2022-11-10T12:02:10.080Z,1009.06
2022-11-10T12:03:10.034Z,1009.10
2022-11-10T12:04:09.975Z,1009.02
2022-11-10T12:05:09.975Z,1009.00